Time;durP1;ratioP1;P1;durP2;ratioP2;P2;SDS_P1;SDS_P2;PMS_P1;PMS_P2;Temp;Humidity;BMP_temperature;BMP_pressure;BME280_temperature;BME280_humidity;BME280_pressure;Samples;Min_cycle;Max_cycle;Signal;HPM_P1;HPM_P2
2023/10/01 00:00:26;;;;;;;1.20;1.00;;;;;;;;;;1011628;29;20029;-70
2023/10/01 00:00:57;;;;;;;1.48;1.38;;;;;;;;;;1014036;29;20488;-70
2023/10/01 00:01:27;;;;;;;0.65;0.65;;;;;;;;;;1014408;29;20062;-70
2023/10/01 00:01:58;;;;;;;1.30;1.23;;;;;;;;;;1018354;29;20110;-70
2023/10/01 00:02:29;;;;;;;1.42;1.33;;;;;;;;;;1021818;29;20032;-70
2023/10/01 00:02:59;;;;;;;0.73;0.73;;;;;;;;;;1021789;29;20035;-70
2023/10/01 00:03:29;;;;;;;0.28;0.28;;;;;;;;;;1017367;29;20035;-70
2023/10/01 00:04:06;;;;;;;4.93;3.42;;;;;;;;;;1017162;29;20027;-70
2023/10/01 00:04:37;;;;;;;0.73;0.73;;;;;;;;;;1013349;29;20034;-70
2023/10/01 00:05:08;;;;;;;1.25;1.23;;;;;;;;;;1013267;29;20096;-70
2023/10/01 00:05:41;;;;;;;0.22;0.22;;;;;;;;;;1017635;29;20066;-70
2023/10/01 00:06:11;;;;;;;2.00;0.90;;;;;;;;;;1016824;29;20028;-70
2023/10/01 00:06:42;;;;;;;0.40;0.40;;;;;;;;;;1021814;29;20016;-70
2023/10/01 00:07:12;;;;;;;0.30;0.30;;;;;;;;;;1017243;29;20032;-70
2023/10/01 00:07:43;;;;;;;0.95;0.35;;;;;;;;;;1017803;29;20016;-70
2023/10/01 00:08:13;;;;;;;0.52;0.52;;;;;;;;;;1017500;29;20027;-70
2023/10/01 00:08:44;;;;;;;2.20;1.17;;;;;;;;;;1017404;29;20523;-70
2023/10/01 00:09:19;;;;;;;0.85;0.80;;;;;;;;;;1021028;29;20036;-70
2023/10/01 00:09:50;;;;;;;0.98;0.98;;;;;;;;;;1021388;29;20170;-70
2023/10/01 00:10:21;;;;;;;1.35;1.25;;;;;;;;;;1022123;29;20030;-70
2023/10/01 00:10:53;;;;;;;2.90;0.70;;;;;;;;;;1021586;29;20027;-70
2023/10/01 00:11:24;;;;;;;1.17;1.15;;;;;;;;;;1021491;29;21645;-70
2023/10/01 00:11:55;;;;;;;0.55;0.55;;;;;;;;;;1021565;29;20399;-70
2023/10/01 00:12:25;;;;;;;0.22;0.22;;;;;;;;;;1021500;29;20024;-70
2023/10/01 00:12:57;;;;;;;3.40;2.58;;;;;;;;;;1021602;29;20027;-70
2023/10/01 00:13:28;;;;;;;0.35;0.35;;;;;;;;;;1021547;29;20542;-70
2023/10/01 00:14:06;;;;;;;4.07;2.15;;;;;;;;;;1021414;29;20028;-71
2023/10/01 00:14:36;;;;;;;1.20;1.10;;;;;;;;;;1020788;29;20031;-71
2023/10/01 00:15:10;;;;;;;2.40;1.98;;;;;;;;;;1022033;29;20539;-71
2023/10/01 00:15:41;;;;;;;1.85;0.65;;;;;;;;;;1021945;29;20134;-71
2023/10/01 00:16:12;;;;;;;3.22;1.45;;;;;;;;;;1021868;29;20023;-71
2023/10/01 00:16:42;;;;;;;1.25;0.63;;;;;;;;;;1026807;23;20472;-70
2023/10/01 00:17:13;;;;;;;10.43;1.33;;;;;;;;;;1025530;28;20071;-71
2023/10/01 00:17:48;;;;;;;6.47;1.05;;;;;;;;;;1024944;28;20496;-71
2023/10/01 00:18:19;;;;;;;0.30;0.30;;;;;;;;;;1025456;28;20416;-71
2023/10/01 00:18:49;;;;;;;0.73;0.73;;;;;;;;;;1028967;28;20117;-73
2023/10/01 00:19:20;;;;;;;0.50;0.50;;;;;;;;;;1029954;28;20518;-73
2023/10/01 00:19:50;;;;;;;0.93;0.77;;;;;;;;;;1029616;28;20035;-73
2023/10/01 00:20:25;;;;;;;0.75;0.75;;;;;;;;;;1030807;28;20030;-73
2023/10/01 00:20:56;;;;;;;2.33;1.50;;;;;;;;;;1029957;28;20026;-73
2023/10/01 00:21:27;;;;;;;2.35;2.17;;;;;;;;;;1029830;28;20023;-71
2023/10/01 00:21:58;;;;;;;1.10;1.10;;;;;;;;;;1028545;28;20023;-71
2023/10/01 00:22:33;;;;;;;0.57;0.57;;;;;;;;;;1027341;28;20594;-71
2023/10/01 00:23:03;;;;;;;2.35;2.20;;;;;;;;;;1024325;29;20027;-70
2023/10/01 00:23:34;;;;;;;0.63;0.63;;;;;;;;;;1021405;29;20087;-71
2023/10/01 00:24:04;;;;;;;1.30;1.20;;;;;;;;;;1021393;29;20434;-70
2023/10/01 00:24:35;;;;;;;3.20;1.20;;;;;;;;;;1019745;29;20503;-71
2023/10/01 00:25:06;;;;;;;2.38;2.17;;;;;;;;;;1024382;28;20027;-71
2023/10/01 00:25:38;;;;;;;4.50;2.30;;;;;;;;;;1025935;28;20057;-71
2023/10/01 00:26:10;;;;;;;0.40;0.40;;;;;;;;;;1025060;29;20493;-71
2023/10/01 00:26:40;;;;;;;6.38;1.95;;;;;;;;;;1019581;29;20094;-72
2023/10/01 00:27:11;;;;;;;9.88;1.67;;;;;;;;;;1017266;29;20034;-71
2023/10/01 00:27:41;;;;;;;0.65;0.43;;;;;;;;;;1017917;29;20027;-71
2023/10/01 00:28:12;;;;;;;8.35;2.13;;;;;;;;;;1019998;28;20031;-71
2023/10/01 00:28:42;;;;;;;0.68;0.68;;;;;;;;;;1019562;29;20031;-71
2023/10/01 00:29:13;;;;;;;1.02;1.02;;;;;;;;;;1019097;29;20491;-71
2023/10/01 00:29:44;;;;;;;1.80;1.25;;;;;;;;;;1019418;29;20027;-71
2023/10/01 00:30:15;;;;;;;1.48;1.38;;;;;;;;;;1021258;28;20532;-71
2023/10/01 00:30:47;;;;;;;1.15;0.95;;;;;;;;;;1027111;28;20022;-70
2023/10/01 00:31:18;;;;;;;0.73;0.63;;;;;;;;;;1025763;28;20018;-71
2023/10/01 00:31:49;;;;;;;0.95;0.88;;;;;;;;;;1022096;29;20400;-71
2023/10/01 00:32:21;;;;;;;0.63;0.55;;;;;;;;;;1023327;29;20019;-71
2023/10/01 00:32:52;;;;;;;0.45;0.25;;;;;;;;;;1023550;29;20164;-71
2023/10/01 00:33:22;;;;;;;1.95;1.77;;;;;;;;;;1024115;29;20415;-71
2023/10/01 00:33:53;;;;;;;0.95;0.95;;;;;;;;;;1026940;28;20517;-71
2023/10/01 00:34:23;;;;;;;6.32;1.33;;;;;;;;;;1033197;23;20027;-70
2023/10/01 00:34:55;;;;;;;0.10;0.10;;;;;;;;;;1021808;29;20032;-70
2023/10/01 00:35:25;;;;;;;0.32;0.32;;;;;;;;;;1022195;29;20023;-71
2023/10/01 00:35:56;;;;;;;1.42;1.20;;;;;;;;;;1022089;29;20011;-71
2023/10/01 00:36:28;;;;;;;2.45;2.25;;;;;;;;;;1021847;29;20126;-71
2023/10/01 00:36:59;;;;;;;0.20;0.20;;;;;;;;;;1021845;29;20031;-71
2023/10/01 00:37:29;;;;;;;1.48;0.68;;;;;;;;;;1022014;29;20031;-71
2023/10/01 00:38:00;;;;;;;1.85;1.75;;;;;;;;;;1021738;29;20077;-71
2023/10/01 00:38:30;;;;;;;0.15;0.15;;;;;;;;;;1021861;29;20028;-71
2023/10/01 00:39:02;;;;;;;0.85;0.85;;;;;;;;;;1021524;29;20023;-71
2023/10/01 00:39:34;;;;;;;0.32;0.32;;;;;;;;;;1018613;29;20028;-71
2023/10/01 00:40:05;;;;;;;0.40;0.40;;;;;;;;;;1018178;29;20028;-71
2023/10/01 00:40:36;;;;;;;1.38;1.30;;;;;;;;;;1017858;29;20530;-71
2023/10/01 00:41:08;;;;;;;0.17;0.17;;;;;;;;;;1021883;29;20130;-71
2023/10/01 00:41:40;;;;;;;2.50;1.23;;;;;;;;;;1022826;29;20514;-71
2023/10/01 00:42:10;;;;;;;1.40;1.17;;;;;;;;;;1021932;29;20110;-71
2023/10/01 00:42:40;;;;;;;1.20;1.10;;;;;;;;;;1022171;29;20387;-71
2023/10/01 00:43:11;;;;;;;0.75;0.75;;;;;;;;;;1022523;29;20130;-71
2023/10/01 00:43:42;;;;;;;0.57;0.57;;;;;;;;;;1022619;29;20078;-71
2023/10/01 00:44:13;;;;;;;1.65;0.60;;;;;;;;;;1022010;29;20106;-71
2023/10/01 00:44:45;;;;;;;1.85;1.58;;;;;;;;;;1021795;29;20110;-71
2023/10/01 00:45:16;;;;;;;0.93;0.57;;;;;;;;;;1021644;29;20070;-71
2023/10/01 00:45:47;;;;;;;0.85;0.85;;;;;;;;;;1021905;29;20398;-71
2023/10/01 00:46:18;;;;;;;1.20;1.15;;;;;;;;;;1021666;29;20119;-71
2023/10/01 00:46:48;;;;;;;0.98;0.38;;;;;;;;;;1021811;29;20032;-71
2023/10/01 00:47:20;;;;;;;1.15;1.13;;;;;;;;;;1021395;29;20476;-71
2023/10/01 00:47:51;;;;;;;0.43;0.43;;;;;;;;;;1021909;29;20383;-71
2023/10/01 00:48:22;;;;;;;2.25;1.83;;;;;;;;;;1021153;29;20030;-71
2023/10/01 00:48:53;;;;;;;1.25;1.15;;;;;;;;;;1021966;29;20020;-71
2023/10/01 00:49:24;;;;;;;1.45;1.35;;;;;;;;;;1022018;29;20463;-71
2023/10/01 00:49:57;;;;;;;1.77;0.68;;;;;;;;;;1022429;29;20487;-71
2023/10/01 00:50:28;;;;;;;2.75;1.70;;;;;;;;;;1021473;29;20524;-71
2023/10/01 00:51:00;;;;;;;0.65;0.65;;;;;;;;;;1022515;29;20024;-71
2023/10/01 00:51:32;;;;;;;7.57;1.25;;;;;;;;;;1022573;29;20035;-71
2023/10/01 00:52:02;;;;;;;3.03;2.15;;;;;;;;;;1022097;29;20118;-71
2023/10/01 00:52:33;;;;;;;1.30;1.20;;;;;;;;;;1021879;29;20129;-71
2023/10/01 00:53:03;;;;;;;7.93;2.15;;;;;;;;;;1021349;29;20027;-71
2023/10/01 00:53:33;;;;;;;0.40;0.40;;;;;;;;;;1022603;29;20485;-71
2023/10/01 00:54:04;;;;;;;1.15;1.05;;;;;;;;;;1020146;29;20030;-71
2023/10/01 00:54:35;;;;;;;18.48;3.47;;;;;;;;;;1020560;29;20024;-71
2023/10/01 00:55:06;;;;;;;1.27;1.17;;;;;;;;;;1022174;29;20125;-71
2023/10/01 00:55:37;;;;;;;0.82;0.82;;;;;;;;;;1022175;29;20069;-71
2023/10/01 00:56:08;;;;;;;1.98;0.90;;;;;;;;;;1021897;29;20504;-71
2023/10/01 00:56:39;;;;;;;8.10;4.57;;;;;;;;;;1018245;29;20067;-71
2023/10/01 00:57:10;;;;;;;2.35;0.90;;;;;;;;;;1022290;29;20027;-71
2023/10/01 00:57:41;;;;;;;4.20;2.10;;;;;;;;;;1022164;29;20024;-71
2023/10/01 00:58:11;;;;;;;8.40;3.75;;;;;;;;;;1021492;29;21006;-71
2023/10/01 00:58:43;;;;;;;1.25;1.20;;;;;;;;;;1023818;29;20029;-71
2023/10/01 00:59:14;;;;;;;2.47;1.48;;;;;;;;;;1022085;29;20019;-71
2023/10/01 00:59:44;;;;;;;3.85;3.45;;;;;;;;;;1020110;28;20035;-71
2023/10/01 01:00:16;;;;;;;11.05;1.70;;;;;;;;;;1024556;28;20519;-71
2023/10/01 01:00:50;;;;;;;1.98;1.80;;;;;;;;;;1022035;29;20035;-71
2023/10/01 01:01:24;;;;;;;5.20;1.25;;;;;;;;;;1022275;29;20024;-71
2023/10/01 01:01:55;;;;;;;4.57;2.67;;;;;;;;;;1021900;29;20015;-71
2023/10/01 01:02:26;;;;;;;2.83;0.77;;;;;;;;;;1022031;29;20019;-71
2023/10/01 01:02:57;;;;;;;8.95;1.42;;;;;;;;;;1020963;29;20537;-71
2023/10/01 01:03:28;;;;;;;4.20;1.88;;;;;;;;;;1019890;29;20024;-71
2023/10/01 01:03:58;;;;;;;1.67;1.20;;;;;;;;;;1019820;29;20027;-71
2023/10/01 01:04:36;;;;;;;2.58;1.75;;;;;;;;;;1018921;29;20024;-71
2023/10/01 01:05:19;;;;;;;1.25;1.20;;;;;;;;;;1016017;29;20114;-71
2023/10/01 01:06:36;;;;;;;1.30;1.20;;;;;;;;;;1015307;29;20028;-71
2023/10/01 01:07:14;;;;;;;2.17;2.00;;;;;;;;;;1019711;29;20175;-71
2023/10/01 01:07:47;;;;;;;7.40;1.88;;;;;;;;;;1021307;29;20128;-71
2023/10/01 01:08:21;;;;;;;0.47;0.47;;;;;;;;;;1020212;29;20027;-71
2023/10/01 01:08:54;;;;;;;1.33;1.05;;;;;;;;;;1021718;29;20134;-71
2023/10/01 01:09:24;;;;;;;5.45;1.60;;;;;;;;;;1021006;29;20112;-71
2023/10/01 01:09:55;;;;;;;5.20;1.83;;;;;;;;;;1017739;29;20555;-71
2023/10/01 01:10:26;;;;;;;4.45;1.58;;;;;;;;;;1018123;29;20020;-71
2023/10/01 01:10:57;;;;;;;1.88;1.77;;;;;;;;;;1021275;28;20493;-71
2023/10/01 01:11:27;;;;;;;1.42;1.33;;;;;;;;;;1025434;28;20027;-71
2023/10/01 01:11:57;;;;;;;2.00;0.77;;;;;;;;;;1029767;23;20019;-71
2023/10/01 01:12:29;;;;;;;6.22;1.52;;;;;;;;;;1021242;29;20028;-71
2023/10/01 01:13:00;;;;;;;0.30;0.30;;;;;;;;;;1017872;29;20038;-70
2023/10/01 01:13:33;;;;;;;2.20;2.00;;;;;;;;;;1018255;29;20035;-71
2023/10/01 01:14:04;;;;;;;2.00;1.33;;;;;;;;;;1018482;29;20039;-71
2023/10/01 01:14:35;;;;;;;0.15;0.15;;;;;;;;;;1018777;29;20107;-71
2023/10/01 01:15:12;;;;;;;1.52;1.42;;;;;;;;;;1018505;29;20067;-71
2023/10/01 01:15:45;;;;;;;0.52;0.47;;;;;;;;;;1018592;29;20020;-71
2023/10/01 01:16:19;;;;;;;9.98;1.58;;;;;;;;;;1018064;29;20380;-71
2023/10/01 01:16:51;;;;;;;1.13;1.08;;;;;;;;;;1019232;29;20094;-71
2023/10/01 01:17:22;;;;;;;1.33;1.25;;;;;;;;;;1021088;29;20024;-71
2023/10/01 01:17:53;;;;;;;1.88;1.48;;;;;;;;;;1022022;29;20031;-71
2023/10/01 01:18:26;;;;;;;1.85;1.75;;;;;;;;;;1021802;29;20039;-71
2023/10/01 01:18:56;;;;;;;0.75;0.75;;;;;;;;;;1021395;29;20019;-71
2023/10/01 01:19:27;;;;;;;1.85;1.58;;;;;;;;;;1018373;29;20024;-71
2023/10/01 01:19:57;;;;;;;1.75;1.65;;;;;;;;;;1018155;29;20054;-71
2023/10/01 01:20:36;;;;;;;0.32;0.32;;;;;;;;;;1017679;29;20027;-71
2023/10/01 01:21:10;;;;;;;0.32;0.32;;;;;;;;;;1018851;29;20070;-71
2023/10/01 01:21:42;;;;;;;1.65;1.52;;;;;;;;;;1018239;29;20095;-71
2023/10/01 01:22:28;;;;;;;0.28;0.28;;;;;;;;;;1018875;29;20016;-71
2023/10/01 01:22:58;;;;;;;3.22;1.38;;;;;;;;;;1017872;29;20035;-71
2023/10/01 01:23:30;;;;;;;1.58;1.13;;;;;;;;;;1018213;29;20032;-71
2023/10/01 01:24:03;;;;;;;11.93;2.90;;;;;;;;;;1017929;29;20023;-71
2023/10/01 01:24:34;;;;;;;2.40;2.05;;;;;;;;;;1017520;29;20051;-71
2023/10/01 01:25:19;;;;;;;1.40;0.85;;;;;;;;;;1019509;29;20032;-71
2023/10/01 01:25:52;;;;;;;0.45;0.43;;;;;;;;;;1021228;29;20038;-71
2023/10/01 01:26:22;;;;;;;1.15;1.10;;;;;;;;;;1021518;29;20023;-71
2023/10/01 01:26:53;;;;;;;7.63;0.90;;;;;;;;;;1019996;29;20408;-71
2023/10/01 01:27:23;;;;;;;0.38;0.38;;;;;;;;;;1019194;29;20028;-71
2023/10/01 01:27:57;;;;;;;0.95;0.70;;;;;;;;;;1018122;29;20035;-71
2023/10/01 01:28:30;;;;;;;0.55;0.55;;;;;;;;;;1018484;29;20123;-71
2023/10/01 01:29:16;;;;;;;3.25;2.03;;;;;;;;;;1018583;29;20040;-71
2023/10/01 01:29:50;;;;;;;2.22;2.03;;;;;;;;;;1021150;29;20023;-71
2023/10/01 01:30:26;;;;;;;0.63;0.63;;;;;;;;;;1020933;28;20031;-71
2023/10/01 01:30:59;;;;;;;0.10;0.10;;;;;;;;;;1021642;29;20032;-71
2023/10/01 01:31:29;;;;;;;4.85;1.85;;;;;;;;;;1021079;29;20055;-71
2023/10/01 01:32:15;;;;;;;0.57;0.57;;;;;;;;;;1018309;29;20030;-71
2023/10/01 01:32:53;;;;;;;0.30;0.30;;;;;;;;;;1018390;29;20092;-71
2023/10/01 01:33:31;;;;;;;3.22;0.93;;;;;;;;;;1019087;29;20031;-71
2023/10/01 01:34:03;;;;;;;1.58;1.48;;;;;;;;;;1017581;29;20019;-71
2023/10/01 01:34:36;;;;;;;0.38;0.38;;;;;;;;;;1017597;29;20032;-71
2023/10/01 01:35:10;;;;;;;0.68;0.68;;;;;;;;;;1017572;29;20130;-71
2023/10/01 01:35:42;;;;;;;1.02;1.02;;;;;;;;;;1018730;29;20102;-71
2023/10/01 01:36:13;;;;;;;0.45;0.45;;;;;;;;;;1021391;29;20039;-72
2023/10/01 01:36:45;;;;;;;3.00;1.58;;;;;;;;;;1022360;29;20030;-71
2023/10/01 01:38:07;;;;;;;1.38;0.77;;;;;;;;;;1017354;29;20028;-71
2023/10/01 01:39:09;;;;;;;0.90;0.90;;;;;;;;;;1021702;29;20011;-71
2023/10/01 01:39:42;;;;;;;2.45;2.25;;;;;;;;;;1013538;29;20052;-71
2023/10/01 01:40:20;;;;;;;1.98;1.85;;;;;;;;;;1021267;29;20496;-71
2023/10/01 01:40:52;;;;;;;8.40;1.30;;;;;;;;;;1018027;29;20561;-71
2023/10/01 01:41:28;;;;;;;0.20;0.20;;;;;;;;;;1017671;29;20024;-71
2023/10/01 01:41:58;;;;;;;1.35;1.23;;;;;;;;;;1019552;29;20032;-71
2023/10/01 01:42:30;;;;;;;0.47;0.47;;;;;;;;;;1019284;29;20500;-71
2023/10/01 01:43:15;;;;;;;1.45;1.35;;;;;;;;;;1023734;29;20027;-71
2023/10/01 01:43:49;;;;;;;1.70;1.60;;;;;;;;;;1022958;29;20030;-71
2023/10/01 01:44:20;;;;;;;1.92;0.57;;;;;;;;;;1019741;29;20054;-71
2023/10/01 01:45:43;;;;;;;0.32;0.32;;;;;;;;;;1019286;29;20042;-71
2023/10/01 01:46:14;;;;;;;1.50;1.10;;;;;;;;;;1018351;29;20051;-71
2023/10/01 01:46:47;;;;;;;1.45;0.93;;;;;;;;;;1021459;29;20023;-71
2023/10/01 01:47:18;;;;;;;4.28;1.27;;;;;;;;;;1021827;29;20034;-71
2023/10/01 01:47:48;;;;;;;1.77;1.50;;;;;;;;;;1022587;29;20034;-71
2023/10/01 01:48:22;;;;;;;0.57;0.57;;;;;;;;;;1022136;29;20031;-71
2023/10/01 01:48:53;;;;;;;2.10;1.55;;;;;;;;;;1022072;29;20038;-71
2023/10/01 01:49:24;;;;;;;3.53;1.40;;;;;;;;;;1021602;29;20135;-71
2023/10/01 01:50:07;;;;;;;0.65;0.65;;;;;;;;;;1018275;29;20028;-71
2023/10/01 01:50:37;;;;;;;1.50;1.40;;;;;;;;;;1021562;29;20109;-71
2023/10/01 01:51:08;;;;;;;1.27;0.93;;;;;;;;;;1020637;29;20682;-71
2023/10/01 01:51:40;;;;;;;0.98;0.95;;;;;;;;;;1022419;29;20075;-71
2023/10/01 01:52:11;;;;;;;2.58;0.32;;;;;;;;;;1022857;29;20101;-71
2023/10/01 01:52:41;;;;;;;0.88;0.73;;;;;;;;;;1019043;29;20376;-71
2023/10/01 01:53:12;;;;;;;2.40;1.48;;;;;;;;;;1019068;29;20115;-71
2023/10/01 01:53:45;;;;;;;2.90;2.00;;;;;;;;;;1019726;29;20511;-71
2023/10/01 01:54:15;;;;;;;7.13;2.15;;;;;;;;;;1019426;29;20060;-71
2023/10/01 01:54:46;;;;;;;5.65;1.30;;;;;;;;;;1021838;29;20476;-71
2023/10/01 01:55:23;;;;;;;0.35;0.25;;;;;;;;;;1023558;29;20015;-71
2023/10/01 01:55:55;;;;;;;3.25;2.30;;;;;;;;;;1022388;29;20522;-71
2023/10/01 01:56:27;;;;;;;2.63;1.00;;;;;;;;;;1021589;29;20028;-71
2023/10/01 01:56:58;;;;;;;1.55;1.45;;;;;;;;;;1020173;29;20073;-71
2023/10/01 01:57:30;;;;;;;1.52;1.42;;;;;;;;;;1017950;29;20405;-71
2023/10/01 01:58:39;;;;;;;0.82;0.70;;;;;;;;;;1019805;29;20508;-71
2023/10/01 01:59:15;;;;;;;5.28;1.75;;;;;;;;;;1021800;29;20026;-71
2023/10/01 01:59:46;;;;;;;1.25;1.20;;;;;;;;;;1018412;29;20024;-71
2023/10/01 02:00:17;;;;;;;1.13;0.73;;;;;;;;;;1018909;29;20024;-71
2023/10/01 02:01:08;;;;;;;0.85;0.85;;;;;;;;;;1017734;29;20115;-71
2023/10/01 02:01:38;;;;;;;0.70;0.57;;;;;;;;;;1017831;29;20115;-71
2023/10/01 02:02:09;;;;;;;0.52;0.52;;;;;;;;;;1019240;29;20031;-71
2023/10/01 02:02:40;;;;;;;5.32;1.23;;;;;;;;;;1020463;29;20188;-71
2023/10/01 02:03:10;;;;;;;0.95;0.95;;;;;;;;;;1023384;29;20118;-71
2023/10/01 02:03:44;;;;;;;0.20;0.20;;;;;;;;;;1023035;29;20035;-71
2023/10/01 02:04:15;;;;;;;0.28;0.28;;;;;;;;;;1023592;29;20028;-71
2023/10/01 02:05:00;;;;;;;0.57;0.57;;;;;;;;;;1017674;29;20118;-71
2023/10/01 02:05:31;;;;;;;0.57;0.57;;;;;;;;;;1017888;29;20052;-71
2023/10/01 02:06:03;;;;;;;1.55;1.45;;;;;;;;;;1013988;29;20462;-71
2023/10/01 02:06:33;;;;;;;1.33;1.10;;;;;;;;;;1015184;29;20033;-71
2023/10/01 02:07:04;;;;;;;1.58;1.48;;;;;;;;;;1019328;29;20028;-71
2023/10/01 02:07:34;;;;;;;0.70;0.70;;;;;;;;;;1019542;29;20054;-71
2023/10/01 02:08:08;;;;;;;2.28;1.42;;;;;;;;;;1023780;29;20023;-71
2023/10/01 02:08:49;;;;;;;0.28;0.25;;;;;;;;;;1022200;29;20019;-71
2023/10/01 02:09:20;;;;;;;0.40;0.40;;;;;;;;;;1019620;29;20522;-72
2023/10/01 02:09:51;;;;;;;0.30;0.28;;;;;;;;;;1018146;29;20024;-72
2023/10/01 02:10:21;;;;;;;0.80;0.80;;;;;;;;;;1018187;29;20035;-71
2023/10/01 02:10:54;;;;;;;3.47;1.63;;;;;;;;;;1018084;29;20019;-71
2023/10/01 02:11:25;;;;;;;3.60;2.35;;;;;;;;;;1019452;29;20031;-71
2023/10/01 02:11:55;;;;;;;0.40;0.40;;;;;;;;;;1017755;29;20606;-72
2023/10/01 02:12:29;;;;;;;0.28;0.28;;;;;;;;;;1018534;29;20016;-73
2023/10/01 02:13:04;;;;;;;1.45;1.35;;;;;;;;;;1018516;29;20019;-72
2023/10/01 02:13:40;;;;;;;1.02;0.85;;;;;;;;;;1022020;29;20015;-72
2023/10/01 02:14:29;;;;;;;1.27;1.17;;;;;;;;;;1021408;29;20024;-72
2023/10/01 02:15:03;;;;;;;0.08;0.08;;;;;;;;;;1021299;29;20106;-72
2023/10/01 02:15:35;;;;;;;1.13;1.05;;;;;;;;;;1018926;29;20035;-72
2023/10/01 02:17:13;;;;;;;1.20;1.17;;;;;;;;;;1014722;29;20028;-72
2023/10/01 02:17:43;;;;;;;0.65;0.65;;;;;;;;;;1017900;29;20020;-72
2023/10/01 02:18:17;;;;;;;3.70;1.88;;;;;;;;;;1017302;29;20051;-71
2023/10/01 02:18:56;;;;;;;1.38;1.27;;;;;;;;;;1019043;29;20487;-71
2023/10/01 02:19:26;;;;;;;1.25;1.23;;;;;;;;;;1018427;29;20028;-71
2023/10/01 02:19:58;;;;;;;1.35;0.73;;;;;;;;;;1018521;29;20023;-71
2023/10/01 02:20:33;;;;;;;0.55;0.55;;;;;;;;;;1017026;29;20038;-72
2023/10/01 02:21:16;;;;;;;0.75;0.73;;;;;;;;;;1018232;29;20484;-72
2023/10/01 02:21:52;;;;;;;1.75;1.42;;;;;;;;;;1017942;29;20036;-72
2023/10/01 02:22:24;;;;;;;0.55;0.55;;;;;;;;;;1016685;29;20024;-72
2023/10/01 02:22:58;;;;;;;0.25;0.20;;;;;;;;;;1018839;29;20472;-72
2023/10/01 02:23:33;;;;;;;0.22;0.22;;;;;;;;;;1018933;29;20028;-71
2023/10/01 02:24:03;;;;;;;0.88;0.82;;;;;;;;;;1022004;29;20027;-71
2023/10/01 02:24:44;;;;;;;0.13;0.13;;;;;;;;;;1023702;29;20027;-71
2023/10/01 02:25:16;;;;;;;2.78;2.20;;;;;;;;;;1023172;29;20034;-71
2023/10/01 02:25:47;;;;;;;4.88;2.38;;;;;;;;;;1023025;29;20117;-71
2023/10/01 02:26:18;;;;;;;0.32;0.32;;;;;;;;;;1019746;29;20485;-71
2023/10/01 02:26:53;;;;;;;0.60;0.60;;;;;;;;;;1017769;29;20103;-71
2023/10/01 02:27:26;;;;;;;0.43;0.40;;;;;;;;;;1017803;29;20028;-71
2023/10/01 02:28:10;;;;;;;1.20;0.50;;;;;;;;;;1022662;29;20023;-71
2023/10/01 02:28:42;;;;;;;0.28;0.28;;;;;;;;;;1021454;29;20103;-71
2023/10/01 02:29:13;;;;;;;0.20;0.20;;;;;;;;;;1017999;29;20387;-71
2023/10/01 02:30:11;;;;;;;3.03;1.17;;;;;;;;;;1016372;29;20122;-71
2023/10/01 02:30:39;;;;;;;1.27;0.88;;;;;;;;;;1017484;29;20031;-71
2023/10/01 02:31:10;;;;;;;0.32;0.32;;;;;;;;;;1020602;29;20023;-71
2023/10/01 02:31:47;;;;;;;1.85;0.90;;;;;;;;;;1020873;29;20019;-71
2023/10/01 02:32:19;;;;;;;4.78;1.58;;;;;;;;;;1021457;29;20035;-71
2023/10/01 02:33:15;;;;;;;0.73;0.73;;;;;;;;;;1020702;29;20016;-71
2023/10/01 02:33:55;;;;;;;1.25;1.15;;;;;;;;;;1017249;29;20024;-71
2023/10/01 02:34:29;;;;;;;1.45;1.35;;;;;;;;;;1021870;29;20489;-71
2023/10/01 02:35:00;;;;;;;2.88;1.08;;;;;;;;;;1021176;29;20035;-72
2023/10/01 02:35:36;;;;;;;0.43;0.43;;;;;;;;;;1023106;29;20102;-72
2023/10/01 02:36:12;;;;;;;0.65;0.65;;;;;;;;;;1022637;29;20026;-72
2023/10/01 02:36:42;;;;;;;0.28;0.20;;;;;;;;;;1021567;29;20023;-71
2023/10/01 02:37:25;;;;;;;16.55;1.85;;;;;;;;;;1019835;29;20558;-71
2023/10/01 02:37:58;;;;;;;0.68;0.68;;;;;;;;;;1014358;29;20500;-71
2023/10/01 02:38:43;;;;;;;0.85;0.85;;;;;;;;;;1016510;29;20024;-71
2023/10/01 02:39:28;;;;;;;0.28;0.28;;;;;;;;;;1018674;29;20078;-73
2023/10/01 02:39:59;;;;;;;2.25;0.90;;;;;;;;;;1021988;29;20439;-73
2023/10/01 02:40:36;;;;;;;0.50;0.50;;;;;;;;;;1018219;29;20097;-73
2023/10/01 02:41:09;;;;;;;0.10;0.10;;;;;;;;;;1020567;29;20067;-73
2023/10/01 02:41:40;;;;;;;0.40;0.40;;;;;;;;;;1021318;29;20027;-73
2023/10/01 02:42:20;;;;;;;0.95;0.95;;;;;;;;;;1023346;29;20476;-72
2023/10/01 02:42:56;;;;;;;0.90;0.85;;;;;;;;;;1021524;29;20027;-72
2023/10/01 02:43:33;;;;;;;2.17;0.95;;;;;;;;;;1021256;29;20027;-72
2023/10/01 02:44:04;;;;;;;0.38;0.38;;;;;;;;;;1019341;29;20042;-75
2023/10/01 02:44:35;;;;;;;0.10;0.10;;;;;;;;;;1017503;29;20038;-74
2023/10/01 02:45:30;;;;;;;0.40;0.28;;;;;;;;;;1017087;29;20024;-72
2023/10/01 02:45:57;;;;;;;0.40;0.40;;;;;;;;;;1017742;29;20020;-73
2023/10/01 02:46:28;;;;;;;0.17;0.17;;;;;;;;;;1017969;29;20024;-74
2023/10/01 02:47:02;;;;;;;1.85;1.75;;;;;;;;;;1017964;29;20020;-73
2023/10/01 02:47:34;;;;;;;0.88;0.88;;;;;;;;;;1021208;29;20030;-74
2023/10/01 02:48:16;;;;;;;1.42;1.25;;;;;;;;;;1020514;29;20016;-74
2023/10/01 02:48:47;;;;;;;0.40;0.40;;;;;;;;;;1021610;29;20027;-73
2023/10/01 02:49:18;;;;;;;0.35;0.35;;;;;;;;;;1019953;29;20035;-74
2023/10/01 02:49:50;;;;;;;0.75;0.75;;;;;;;;;;1018008;29;20023;-75
2023/10/01 02:50:20;;;;;;;0.90;0.82;;;;;;;;;;1017720;29;20027;-73
2023/10/01 02:50:54;;;;;;;1.65;0.88;;;;;;;;;;1017855;29;20031;-72
2023/10/01 02:51:32;;;;;;;0.98;0.80;;;;;;;;;;1018000;29;20143;-75
2023/10/01 02:52:04;;;;;;;0.55;0.55;;;;;;;;;;1017469;29;20420;-73
2023/10/01 02:52:39;;;;;;;0.38;0.38;;;;;;;;;;1018899;29;20454;-73
2023/10/01 02:53:10;;;;;;;1.27;0.90;;;;;;;;;;1018602;29;20079;-73
2023/10/01 02:54:05;;;;;;;2.05;1.42;;;;;;;;;;1020432;29;20127;-73
2023/10/01 02:54:37;;;;;;;0.32;0.32;;;;;;;;;;1017682;29;20024;-73
2023/10/01 02:55:31;;;;;;;1.50;1.40;;;;;;;;;;1021009;28;20030;-75
2023/10/01 02:56:02;;;;;;;1.00;1.00;;;;;;;;;;1018864;29;20116;-72
2023/10/01 02:56:52;;;;;;;0.20;0.20;;;;;;;;;;1020666;29;20019;-72
2023/10/01 02:57:26;;;;;;;0.20;0.20;;;;;;;;;;1017853;29;20035;-73
2023/10/01 02:58:02;;;;;;;0.17;0.17;;;;;;;;;;1017810;29;20027;-75
2023/10/01 02:58:33;;;;;;;2.50;0.50;;;;;;;;;;1018848;29;20031;-72
2023/10/01 02:59:13;;;;;;;1.38;1.27;;;;;;;;;;1017560;29;20024;-72
2023/10/01 03:00:33;;;;;;;0.85;0.57;;;;;;;;;;1017986;29;20039;-74
2023/10/01 03:01:13;;;;;;;1.52;1.42;;;;;;;;;;1017639;29;20023;-73
2023/10/01 03:01:46;;;;;;;0.75;0.75;;;;;;;;;;1017951;29;20118;-74
2023/10/01 03:02:20;;;;;;;0.25;0.25;;;;;;;;;;1016736;29;20032;-73
2023/10/01 03:03:00;;;;;;;0.80;0.63;;;;;;;;;;1019393;29;20051;-74
2023/10/01 03:03:31;;;;;;;3.92;1.45;;;;;;;;;;1024165;29;20403;-73
2023/10/01 03:04:15;;;;;;;2.30;0.82;;;;;;;;;;1023534;29;20478;-73
2023/10/01 03:04:46;;;;;;;0.55;0.55;;;;;;;;;;1022473;29;20031;-75
2023/10/01 03:05:23;;;;;;;1.67;1.15;;;;;;;;;;1017513;29;20059;-74
2023/10/01 03:05:53;;;;;;;0.38;0.38;;;;;;;;;;1017521;29;20023;-74
2023/10/01 03:06:25;;;;;;;0.57;0.57;;;;;;;;;;1018264;29;20039;-75
2023/10/01 03:06:56;;;;;;;1.55;0.65;;;;;;;;;;1020698;29;20483;-73
2023/10/01 03:07:32;;;;;;;0.45;0.40;;;;;;;;;;1023070;29;20055;-75
2023/10/01 03:08:11;;;;;;;1.45;1.02;;;;;;;;;;1022930;29;20027;-73
2023/10/01 03:09:00;;;;;;;0.05;0.05;;;;;;;;;;1022046;29;20074;-71
2023/10/01 03:09:33;;;;;;;1.75;0.57;;;;;;;;;;1020759;29;20070;-72
2023/10/01 03:10:12;;;;;;;0.00;0.00;;;;;;;;;;1021334;29;20550;-72
2023/10/01 03:10:46;;;;;;;1.38;0.95;;;;;;;;;;1018862;29;20027;-77
2023/10/01 03:11:17;;;;;;;0.47;0.47;;;;;;;;;;1021233;29;20114;-76
2023/10/01 03:11:48;;;;;;;1.35;0.95;;;;;;;;;;1020931;29;20494;-75
2023/10/01 03:12:27;;;;;;;2.17;1.77;;;;;;;;;;1020915;29;20533;-74
2023/10/01 03:12:58;;;;;;;0.20;0.20;;;;;;;;;;1021665;29;20071;-75
2023/10/01 03:13:32;;;;;;;1.42;1.33;;;;;;;;;;1019641;29;20572;-74
2023/10/01 03:14:09;;;;;;;0.73;0.38;;;;;;;;;;1020807;29;20445;-73
2023/10/01 03:14:43;;;;;;;0.50;0.50;;;;;;;;;;1019365;29;20062;-74
2023/10/01 03:15:44;;;;;;;0.47;0.47;;;;;;;;;;1017496;29;20453;-73
2023/10/01 03:17:07;;;;;;;7.22;1.00;;;;;;;;;;1021305;29;20110;-75
2023/10/01 03:17:55;;;;;;;1.65;1.35;;;;;;;;;;1021210;29;20035;-75
2023/10/01 03:19:03;;;;;;;0.30;0.30;;;;;;;;;;1021692;29;20024;-73
2023/10/01 03:19:36;;;;;;;0.47;0.47;;;;;;;;;;1021734;29;20507;-71
2023/10/01 03:20:58;;;;;;;3.88;1.35;;;;;;;;;;1020949;29;20027;-73
2023/10/01 03:21:18;;;;;;;3.00;1.73;;;;;;;;;;1018472;29;20108;-74
2023/10/01 03:22:35;;;;;;;0.77;0.77;;;;;;;;;;1017859;29;20247;-74
2023/10/01 03:23:17;;;;;;;0.75;0.75;;;;;;;;;;1017315;29;20028;-71
2023/10/01 03:23:51;;;;;;;0.57;0.50;;;;;;;;;;1017825;29;20503;-74
2023/10/01 03:24:25;;;;;;;1.17;1.08;;;;;;;;;;1017699;29;20479;-74
2023/10/01 03:24:58;;;;;;;1.55;1.45;;;;;;;;;;1018010;29;20032;-72
2023/10/01 03:25:40;;;;;;;0.20;0.20;;;;;;;;;;1017988;29;20026;-74
2023/10/01 03:26:10;;;;;;;2.13;1.80;;;;;;;;;;1017027;29;20585;-73
2023/10/01 03:26:44;;;;;;;1.75;0.82;;;;;;;;;;1017692;29;20112;-76
2023/10/01 03:27:27;;;;;;;0.63;0.63;;;;;;;;;;1016347;29;20056;-75
2023/10/01 03:28:01;;;;;;;0.75;0.75;;;;;;;;;;1017490;29;20039;-75
2023/10/01 03:29:22;;;;;;;0.40;0.40;;;;;;;;;;1016392;29;20023;-72
2023/10/01 03:30:19;;;;;;;1.38;1.27;;;;;;;;;;1017507;29;20032;-73